createdAt,value
2024-02-12T00:01:39.659Z,8.13
2024-02-12T00:04:08.323Z,8.02
2024-02-12T00:06:36.232Z,8.12
2024-02-12T00:09:04.416Z,8.11
2024-02-12T00:11:31.457Z,8.17
2024-02-12T00:13:58.205Z,8.00
2024-02-12T00:16:27.292Z,8.04
2024-02-12T00:18:54.232Z,8.03
2024-02-12T00:21:20.791Z,8.06
2024-02-12T00:23:47.789Z,8.01
2024-02-12T00:26:15.172Z,8.00
2024-02-12T00:28:41.932Z,8.04
2024-02-12T00:31:08.396Z,8.01
2024-02-12T00:33:34.965Z,7.91
2024-02-12T00:36:01.972Z,7.94
2024-02-12T00:38:29.144Z,7.86
2024-02-12T00:40:55.730Z,7.90
2024-02-12T00:43:22.188Z,8.02
2024-02-12T00:45:48.605Z,8.00
2024-02-12T00:48:15.782Z,8.00
2024-02-12T00:50:42.308Z,7.92
2024-02-12T00:53:09.075Z,8.01
2024-02-12T00:55:35.560Z,7.89
2024-02-12T00:58:04.514Z,7.91
2024-02-12T01:00:31.183Z,7.87
2024-02-12T01:02:57.653Z,8.03
2024-02-12T01:05:24.477Z,8.10
2024-02-12T01:07:51.173Z,8.08
2024-02-12T01:10:17.752Z,8.12
2024-02-12T01:12:45.123Z,8.16
2024-02-12T01:15:11.804Z,8.19
2024-02-12T01:17:42.538Z,8.30
2024-02-12T01:20:13.153Z,8.32
2024-02-12T01:22:39.847Z,8.30
2024-02-12T01:25:06.369Z,8.26
2024-02-12T01:27:32.789Z,8.37
2024-02-12T01:29:59.250Z,8.33
2024-02-12T01:32:26.713Z,8.27
2024-02-12T01:34:53.390Z,8.36
2024-02-12T01:37:19.896Z,8.38
2024-02-12T01:39:47.143Z,8.24
2024-02-12T01:42:16.450Z,8.42
2024-02-12T01:44:53.654Z,8.44
2024-02-12T01:47:25.215Z,8.37
2024-02-12T01:49:56.563Z,8.34
2024-02-12T01:52:24.148Z,8.29
2024-02-12T01:54:51.826Z,8.34
2024-02-12T01:57:18.802Z,8.28
2024-02-12T01:59:45.278Z,8.20
2024-02-12T02:02:14.682Z,8.29
2024-02-12T02:04:42.723Z,8.19
2024-02-12T02:07:20.753Z,8.22
2024-02-12T02:09:47.778Z,8.19
2024-02-12T02:12:15.528Z,8.16
2024-02-12T02:14:44.045Z,8.06
2024-02-12T02:17:11.186Z,8.29
2024-02-12T02:19:39.359Z,8.19
2024-02-12T02:22:06.548Z,8.16
2024-02-12T02:24:33.492Z,8.18
2024-02-12T02:26:59.947Z,8.28
2024-02-12T02:29:26.626Z,8.12
2024-02-12T02:31:53.139Z,8.07
2024-02-12T02:34:19.665Z,8.12
2024-02-12T02:36:49.747Z,8.06
2024-02-12T02:39:16.244Z,8.12
2024-02-12T02:41:47.043Z,8.04
2024-02-12T02:44:14.816Z,8.15
2024-02-12T02:46:42.112Z,8.09
2024-02-12T02:49:09.117Z,8.03
2024-02-12T02:51:38.867Z,8.06
2024-02-12T02:54:05.598Z,7.98
2024-02-12T02:56:32.144Z,8.05
2024-02-12T02:58:59.612Z,7.93
2024-02-12T03:01:26.207Z,8.01
2024-02-12T03:03:53.418Z,8.01
2024-02-12T03:06:20.397Z,7.99
2024-02-12T03:08:50.188Z,7.91
2024-02-12T03:11:20.626Z,8.01
2024-02-12T03:13:47.182Z,7.95
2024-02-12T03:16:17.114Z,7.72
2024-02-12T03:18:47.027Z,7.57
2024-02-12T03:21:16.521Z,7.58
2024-02-12T03:23:43.062Z,7.69
2024-02-12T03:26:10.031Z,7.64
2024-02-12T03:28:36.855Z,7.81
2024-02-12T03:31:03.306Z,7.59
2024-02-12T03:33:29.784Z,7.55
2024-02-12T03:35:56.320Z,7.55
2024-02-12T03:38:25.589Z,7.64
2024-02-12T03:40:55.491Z,7.54
2024-02-12T03:43:25.468Z,7.37
2024-02-12T03:45:53.822Z,7.64
2024-02-12T03:48:38.989Z,7.73
2024-02-12T03:51:24.158Z,7.68
2024-02-12T03:54:09.313Z,7.54
2024-02-12T03:56:53.962Z,7.37
2024-02-12T03:59:38.844Z,7.49
2024-02-12T04:02:05.299Z,7.37
2024-02-12T04:04:32.950Z,7.49
2024-02-12T04:06:59.470Z,7.61
2024-02-12T04:09:25.986Z,7.49
2024-02-12T04:11:52.384Z,7.72
2024-02-12T04:14:20.096Z,7.56
2024-02-12T04:16:53.223Z,7.80
2024-02-12T04:19:23.914Z,7.66
2024-02-12T04:21:53.447Z,7.86
2024-02-12T04:24:20.655Z,7.55
2024-02-12T04:26:47.598Z,7.82
2024-02-12T04:29:15.841Z,7.83
2024-02-12T04:31:42.917Z,7.89
2024-02-12T04:34:09.870Z,8.01
2024-02-12T04:36:41.512Z,7.76
2024-02-12T04:39:09.594Z,7.81
2024-02-12T04:41:41.071Z,7.54
2024-02-12T04:44:08.296Z,7.49
2024-02-12T04:46:37.837Z,7.37
2024-02-12T04:49:04.939Z,7.49
2024-02-12T04:51:32.614Z,7.58
2024-02-12T04:53:59.777Z,7.35
2024-02-12T04:56:26.685Z,7.43
2024-02-12T04:58:54.824Z,7.63
2024-02-12T05:01:21.313Z,7.67
2024-02-12T05:03:47.780Z,7.58
2024-02-12T05:06:18.927Z,7.78
2024-02-12T05:08:45.572Z,7.63
2024-02-12T05:11:12.026Z,7.78
2024-02-12T05:13:38.936Z,7.87
2024-02-12T05:16:08.979Z,7.90
2024-02-12T05:18:54.587Z,7.75
2024-02-12T05:21:39.389Z,7.36
2024-02-12T05:24:06.544Z,7.48
2024-02-12T05:26:33.235Z,7.18
2024-02-12T05:29:00.405Z,7.20
2024-02-12T05:31:26.874Z,7.17
2024-02-12T05:33:53.449Z,7.23
2024-02-12T05:36:21.603Z,7.03
2024-02-12T05:38:50.161Z,6.99
2024-02-12T05:41:16.905Z,7.24
2024-02-12T05:43:44.110Z,7.24
2024-02-12T05:46:10.570Z,7.15
2024-02-12T05:48:38.789Z,7.20
2024-02-12T05:51:10.026Z,7.44
2024-02-12T05:53:37.546Z,7.04
2024-02-12T05:56:04.302Z,7.17
2024-02-12T05:58:30.752Z,6.94
2024-02-12T06:00:57.389Z,7.11
2024-02-12T06:03:23.906Z,7.08
2024-02-12T06:05:50.995Z,6.95
2024-02-12T06:08:17.853Z,6.76
2024-02-12T06:10:44.455Z,6.86
2024-02-12T06:13:11.047Z,6.74
2024-02-12T06:15:37.483Z,6.54
2024-02-12T06:18:04.277Z,6.66
2024-02-12T06:20:30.789Z,6.64
2024-02-12T06:22:57.356Z,6.69
2024-02-12T06:25:25.410Z,6.58
2024-02-12T06:27:52.013Z,6.51
2024-02-12T06:30:18.558Z,6.50
2024-02-12T06:32:45.201Z,6.56
2024-02-12T06:35:11.863Z,6.29
2024-02-12T06:37:39.596Z,6.36
2024-02-12T06:40:11.726Z,6.24
2024-02-12T06:42:38.153Z,6.30
2024-02-12T06:45:04.821Z,6.38
2024-02-12T06:47:31.833Z,6.58
2024-02-12T06:49:58.376Z,6.51
2024-02-12T06:52:24.873Z,6.53
2024-02-12T06:54:51.311Z,6.60
2024-02-12T06:57:17.870Z,6.54
2024-02-12T06:59:44.513Z,6.66
2024-02-12T07:02:11.463Z,6.88
2024-02-12T07:04:37.963Z,6.98
2024-02-12T07:07:04.657Z,7.10
2024-02-12T07:09:31.075Z,7.05
2024-02-12T07:11:57.507Z,7.20
2024-02-12T07:14:24.021Z,7.28
2024-02-12T07:16:51.241Z,7.30
2024-02-12T07:19:17.786Z,7.20
2024-02-12T07:21:44.297Z,7.22
2024-02-12T07:24:10.804Z,7.21
2024-02-12T07:26:37.428Z,7.20
2024-02-12T07:29:04.098Z,7.13
2024-02-12T07:31:30.551Z,7.26
2024-02-12T07:33:57.220Z,7.33
2024-02-12T07:36:23.787Z,7.41
2024-02-12T07:38:50.243Z,7.45
2024-02-12T07:41:16.852Z,7.42
2024-02-12T07:43:44.085Z,7.51
2024-02-12T07:46:13.118Z,7.50
2024-02-12T07:48:42.513Z,7.52
2024-02-12T07:51:10.826Z,7.56
2024-02-12T07:53:39.365Z,7.53
2024-02-12T07:56:06.442Z,7.69
2024-02-12T07:58:32.884Z,7.84
2024-02-12T08:00:59.335Z,7.73
2024-02-12T08:03:27.038Z,7.51
2024-02-12T08:05:53.702Z,7.53
2024-02-12T08:08:20.264Z,7.58
2024-02-12T08:10:47.163Z,7.41
2024-02-12T08:13:13.798Z,7.42
2024-02-12T08:15:40.452Z,7.66
2024-02-12T08:18:07.304Z,7.87
2024-02-12T08:20:34.302Z,7.94
2024-02-12T08:23:00.836Z,7.90
2024-02-12T08:25:29.047Z,8.14
2024-02-12T08:27:56.319Z,8.21
2024-02-12T08:30:22.917Z,8.28
2024-02-12T08:32:49.532Z,8.20
2024-02-12T08:35:16.212Z,8.13
2024-02-12T08:37:42.685Z,8.17
2024-02-12T08:40:12.038Z,8.12
2024-02-12T08:42:39.997Z,8.06
2024-02-12T08:45:06.807Z,8.12
2024-02-12T08:47:33.282Z,7.98
2024-02-12T08:49:59.856Z,8.22
2024-02-12T08:52:26.363Z,8.16
2024-02-12T08:54:52.852Z,8.17
2024-02-12T08:57:20.723Z,8.25
2024-02-12T08:59:47.308Z,8.37
2024-02-12T09:02:13.891Z,8.38
2024-02-12T09:04:40.428Z,8.24
2024-02-12T09:07:08.241Z,8.17
2024-02-12T09:09:34.666Z,8.28
2024-02-12T09:12:01.168Z,8.34
2024-02-12T09:14:28.025Z,8.52
2024-02-12T09:16:54.540Z,8.42
2024-02-12T09:19:21.036Z,8.60
2024-02-12T09:21:48.137Z,8.68
2024-02-12T09:24:15.546Z,8.53
2024-02-12T09:26:42.144Z,8.56
2024-02-12T09:29:08.700Z,8.68
2024-02-12T09:31:35.133Z,8.70
2024-02-12T09:34:03.485Z,8.60
2024-02-12T09:36:30.426Z,8.70
2024-02-12T09:38:56.909Z,8.65
2024-02-12T09:41:29.322Z,8.57
2024-02-12T09:43:56.529Z,8.51
2024-02-12T09:46:23.135Z,8.37
2024-02-12T09:48:50.056Z,8.26
2024-02-12T09:51:17.815Z,8.29
2024-02-12T09:53:45.090Z,8.31
2024-02-12T09:56:15.848Z,8.30
2024-02-12T09:58:42.958Z,8.38
2024-02-12T10:01:11.936Z,8.09
2024-02-12T10:03:38.512Z,8.33
2024-02-12T10:06:05.237Z,8.36
2024-02-12T10:08:37.066Z,8.16
2024-02-12T10:11:03.643Z,8.01
2024-02-12T10:13:30.331Z,8.25
2024-02-12T10:15:56.941Z,8.11
2024-02-12T10:18:23.574Z,8.26
2024-02-12T10:20:50.899Z,8.36
2024-02-12T10:23:18.214Z,8.23
2024-02-12T10:25:50.102Z,8.28
2024-02-12T10:28:17.193Z,8.08
2024-02-12T10:30:45.027Z,7.90
2024-02-12T10:33:13.098Z,8.00
2024-02-12T10:35:41.589Z,8.03
2024-02-12T10:38:08.299Z,7.77
2024-02-12T10:41:02.654Z,7.97
2024-02-12T10:43:31.290Z,8.31
2024-02-12T10:45:59.135Z,8.29
2024-02-12T10:48:26.171Z,8.08
2024-02-12T10:50:55.804Z,8.24
2024-02-12T10:53:24.637Z,8.15
2024-02-12T10:55:51.281Z,8.21
2024-02-12T10:58:19.298Z,8.26
2024-02-12T11:01:03.939Z,7.79
2024-02-12T11:03:45.420Z,7.88
2024-02-12T11:06:12.755Z,7.90
2024-02-12T11:08:42.776Z,7.77
2024-02-12T11:11:19.550Z,8.05
2024-02-12T11:13:47.353Z,8.01
2024-02-12T11:16:18.470Z,7.93
2024-02-12T11:18:48.754Z,8.10
2024-02-12T11:21:18.218Z,7.66
2024-02-12T11:23:47.646Z,7.73
2024-02-12T11:26:15.700Z,8.06
2024-02-12T11:28:53.402Z,7.93
2024-02-12T11:31:20.562Z,8.04
2024-02-12T11:33:49.048Z,8.45
2024-02-12T11:36:17.638Z,8.81
2024-02-12T11:38:51.164Z,8.58
2024-02-12T11:41:17.753Z,8.79
2024-02-12T11:43:47.063Z,9.03
2024-02-12T11:46:17.775Z,9.12
2024-02-12T11:48:44.635Z,9.05
2024-02-12T11:51:11.389Z,8.75
2024-02-12T11:53:39.469Z,8.75
2024-02-12T11:56:07.074Z,8.55
2024-02-12T11:58:33.569Z,8.76
2024-02-12T12:01:00.132Z,8.72
2024-02-12T12:03:27.087Z,8.91
2024-02-12T12:05:55.232Z,8.73
2024-02-12T12:08:28.302Z,8.94
2024-02-12T12:11:04.939Z,8.60
2024-02-12T12:13:31.401Z,9.13
2024-02-12T12:15:58.404Z,8.98
2024-02-12T12:18:25.991Z,9.02
2024-02-12T12:20:56.124Z,8.87
2024-02-12T12:23:22.800Z,9.20
2024-02-12T12:25:53.417Z,9.32
2024-02-12T12:28:19.921Z,8.88
2024-02-12T12:30:46.414Z,9.47
2024-02-12T12:33:12.926Z,8.95
2024-02-12T12:35:40.351Z,9.40
2024-02-12T12:38:11.222Z,9.28
2024-02-12T12:40:37.767Z,8.89
2024-02-12T12:43:05.234Z,9.10
2024-02-12T12:45:32.616Z,9.55
2024-02-12T12:47:59.225Z,9.05
2024-02-12T12:50:26.098Z,9.13
2024-02-12T12:52:52.603Z,9.04
2024-02-12T12:55:19.056Z,8.95
2024-02-12T12:57:45.559Z,9.00
2024-02-12T13:00:22.586Z,8.77
2024-02-12T13:02:54.212Z,8.80
2024-02-12T13:05:22.216Z,8.84
2024-02-12T13:08:16.596Z,9.59
2024-02-12T13:10:41.831Z,9.99
2024-02-12T13:13:15.049Z,9.79
2024-02-12T13:15:44.457Z,9.53
2024-02-12T13:18:14.045Z,9.48
2024-02-12T13:20:41.249Z,9.24
2024-02-12T13:23:08.299Z,9.41
2024-02-12T13:25:38.421Z,9.01
2024-02-12T13:28:10.482Z,9.02
2024-02-12T13:30:38.090Z,8.76
2024-02-12T13:33:10.421Z,8.61
2024-02-12T13:35:38.843Z,8.69
2024-02-12T13:38:05.630Z,8.77
2024-02-12T13:40:33.921Z,8.86
2024-02-12T13:43:05.453Z,8.69
2024-02-12T13:45:32.994Z,8.96
2024-02-12T13:47:59.544Z,8.84
2024-02-12T13:50:27.548Z,8.95
2024-02-12T13:52:54.163Z,8.92
2024-02-12T13:55:21.587Z,9.26
2024-02-12T13:57:50.023Z,9.36
2024-02-12T14:00:37.616Z,9.64
2024-02-12T14:03:06.494Z,9.95
2024-02-12T14:05:33.322Z,9.92
2024-02-12T14:08:00.082Z,9.99
2024-02-12T14:10:27.976Z,9.57
2024-02-12T14:12:55.000Z,9.72
2024-02-12T14:16:01.712Z,10.41
2024-02-12T14:18:10.447Z,10.80
2024-02-12T14:20:37.362Z,9.92
2024-02-12T14:23:06.619Z,9.60
2024-02-12T14:25:35.085Z,9.38
2024-02-12T14:28:04.151Z,9.29
2024-02-12T14:30:32.536Z,8.90
2024-02-12T14:32:59.233Z,8.68
2024-02-12T14:35:26.141Z,9.32
2024-02-12T14:37:57.199Z,9.62
2024-02-12T14:40:24.505Z,9.34
2024-02-12T14:42:51.102Z,9.34
2024-02-12T14:45:22.430Z,9.59
2024-02-12T14:47:49.138Z,9.30
2024-02-12T14:50:19.496Z,9.27
2024-02-12T14:52:46.258Z,9.46
2024-02-12T14:55:12.734Z,9.35
2024-02-12T14:57:42.528Z,9.47
2024-02-12T15:00:16.616Z,9.66
2024-02-12T15:02:44.256Z,10.09
2024-02-12T15:05:15.632Z,10.31
2024-02-12T15:07:46.992Z,9.93
2024-02-12T15:10:25.911Z,10.30
2024-02-12T15:12:53.180Z,10.26
2024-02-12T15:15:20.504Z,10.00
2024-02-12T15:17:51.703Z,9.76
2024-02-12T15:20:21.814Z,9.87
2024-02-12T15:22:50.318Z,9.58
2024-02-12T15:25:20.248Z,9.42
2024-02-12T15:27:48.277Z,9.60
2024-02-12T15:30:18.089Z,9.42
2024-02-12T15:32:44.865Z,9.29
2024-02-12T15:35:18.089Z,9.49
2024-02-12T15:37:45.470Z,9.35
2024-02-12T15:40:13.106Z,9.41
2024-02-12T15:42:42.671Z,9.24
2024-02-12T15:45:09.479Z,9.35
2024-02-12T15:47:38.619Z,9.53
2024-02-12T15:50:05.981Z,9.90
2024-02-12T15:52:32.540Z,10.15
2024-02-12T15:54:59.045Z,10.00
2024-02-12T15:57:28.094Z,9.67
2024-02-12T15:59:54.677Z,9.39
2024-02-12T16:02:21.751Z,9.21
2024-02-12T16:04:49.057Z,9.16
2024-02-12T16:07:15.773Z,9.00
2024-02-12T16:09:42.521Z,8.91
2024-02-12T16:12:14.487Z,8.81
2024-02-12T16:14:41.830Z,8.76
2024-02-12T16:17:09.665Z,8.72
2024-02-12T16:19:37.538Z,8.63
2024-02-12T16:22:05.015Z,8.70
2024-02-12T16:24:34.712Z,8.76
2024-02-12T16:27:01.929Z,8.75
2024-02-12T16:29:31.372Z,8.75
2024-02-12T16:31:58.485Z,8.77
2024-02-12T16:34:25.209Z,8.82
2024-02-12T16:36:52.468Z,8.87
2024-02-12T16:39:19.797Z,8.92
2024-02-12T16:41:46.553Z,8.90
2024-02-12T16:44:13.922Z,8.89
2024-02-12T16:46:45.292Z,8.81
2024-02-12T16:49:15.381Z,8.50
2024-02-12T16:51:48.170Z,8.40
2024-02-12T16:54:15.839Z,8.38
2024-02-12T16:56:44.050Z,8.35
2024-02-12T16:59:11.690Z,8.36
2024-02-12T17:01:38.445Z,8.35
2024-02-12T17:04:05.966Z,8.30
2024-02-12T17:06:33.765Z,8.25
2024-02-12T17:09:00.498Z,8.19
2024-02-12T17:11:27.337Z,8.09
2024-02-12T17:13:54.636Z,8.16
2024-02-12T17:16:30.244Z,8.10
2024-02-12T17:19:06.276Z,8.07
2024-02-12T17:21:35.087Z,8.02
2024-02-12T17:24:01.762Z,7.75
2024-02-12T17:26:28.344Z,7.88
2024-02-12T17:28:54.791Z,7.98
2024-02-12T17:31:21.273Z,8.03
2024-02-12T17:33:48.040Z,7.90
2024-02-12T17:36:16.398Z,7.95
2024-02-12T17:38:44.816Z,7.89
2024-02-12T17:41:16.372Z,7.90
2024-02-12T17:43:45.518Z,7.92
2024-02-12T17:46:14.656Z,7.79
2024-02-12T17:48:42.370Z,7.89
2024-02-12T17:51:08.901Z,7.60
2024-02-12T17:53:35.474Z,7.89
2024-02-12T17:56:03.459Z,7.42
2024-02-12T17:58:30.100Z,7.71
2024-02-12T18:00:56.628Z,7.50
2024-02-12T18:03:23.230Z,7.44
2024-02-12T18:05:49.885Z,7.41
2024-02-12T18:08:16.414Z,7.20
2024-02-12T18:10:42.903Z,7.14
2024-02-12T18:13:09.555Z,6.89
2024-02-12T18:15:36.211Z,7.08
2024-02-12T18:18:03.187Z,7.13
2024-02-12T18:20:30.219Z,7.17
2024-02-12T18:22:56.755Z,7.02
2024-02-12T18:25:23.266Z,7.06
2024-02-12T18:27:49.925Z,6.94
2024-02-12T18:30:16.932Z,6.94
2024-02-12T18:32:44.119Z,6.89
2024-02-12T18:35:13.434Z,6.84
2024-02-12T18:37:41.335Z,6.65
2024-02-12T18:40:17.146Z,6.58
2024-02-12T18:42:47.300Z,6.39
2024-02-12T18:45:17.203Z,6.58
2024-02-12T18:47:44.837Z,6.24
2024-02-12T18:50:14.260Z,6.45
2024-02-12T18:52:40.769Z,6.65
2024-02-12T18:55:11.164Z,6.29
2024-02-12T18:57:41.435Z,6.33
2024-02-12T19:00:08.781Z,6.38
2024-02-12T19:02:36.787Z,6.35
2024-02-12T19:05:03.501Z,6.44
2024-02-12T19:07:30.163Z,6.47
2024-02-12T19:09:56.590Z,6.48
2024-02-12T19:12:24.368Z,6.57
2024-02-12T19:14:51.428Z,6.58
2024-02-12T19:17:18.153Z,6.55
2024-02-12T19:19:44.618Z,6.42
2024-02-12T19:22:11.095Z,6.40
2024-02-12T19:24:41.023Z,6.38
2024-02-12T19:27:07.542Z,6.29
2024-02-12T19:29:34.079Z,6.09
2024-02-12T19:32:01.958Z,6.14
2024-02-12T19:34:28.497Z,6.21
2024-02-12T19:36:57.575Z,6.13
2024-02-12T19:39:24.097Z,6.08
2024-02-12T19:41:50.608Z,6.12
2024-02-12T19:44:19.695Z,6.03
2024-02-12T19:46:46.280Z,5.97
2024-02-12T19:49:12.821Z,5.88
2024-02-12T19:51:39.373Z,5.78
2024-02-12T19:54:05.956Z,5.74
2024-02-12T19:56:37.464Z,5.79
2024-02-12T19:59:07.414Z,5.97
2024-02-12T20:01:36.713Z,5.94
2024-02-12T20:04:05.361Z,5.90
2024-02-12T20:06:34.734Z,5.74
2024-02-12T20:09:01.992Z,5.85
2024-02-12T20:11:28.544Z,5.83
2024-02-12T20:13:55.068Z,5.82
2024-02-12T20:16:21.557Z,5.79
2024-02-12T20:18:48.167Z,5.79
2024-02-12T20:21:14.916Z,5.83
2024-02-12T20:23:41.456Z,5.82
2024-02-12T20:26:07.979Z,5.86
2024-02-12T20:28:35.662Z,5.81
2024-02-12T20:31:05.024Z,5.78
2024-02-12T20:33:34.498Z,5.83
2024-02-12T20:36:01.714Z,5.61
2024-02-12T20:38:28.902Z,5.81
2024-02-12T20:40:55.404Z,5.82
2024-02-12T20:43:21.853Z,5.67
2024-02-12T20:45:48.428Z,5.82
2024-02-12T20:48:15.235Z,5.81
2024-02-12T20:50:42.037Z,5.73
2024-02-12T20:53:09.343Z,5.78
2024-02-12T20:55:36.921Z,5.71
2024-02-12T20:58:05.005Z,5.90
2024-02-12T21:00:31.642Z,5.55
2024-02-12T21:02:58.210Z,5.74
2024-02-12T21:05:24.815Z,5.75
2024-02-12T21:07:52.168Z,5.80
2024-02-12T21:10:18.637Z,5.87
2024-02-12T21:12:45.712Z,5.97
2024-02-12T21:15:12.626Z,6.07
2024-02-12T21:17:39.268Z,6.03
2024-02-12T21:20:07.793Z,5.95
2024-02-12T21:22:34.536Z,5.93
2024-02-12T21:25:02.252Z,5.92
2024-02-12T21:27:28.740Z,5.99
2024-02-12T21:29:55.292Z,5.90
2024-02-12T21:32:22.966Z,5.92
2024-02-12T21:34:49.654Z,5.86
2024-02-12T21:37:18.536Z,5.98
2024-02-12T21:39:49.260Z,5.96
2024-02-12T21:42:25.537Z,5.98
2024-02-12T21:44:53.943Z,5.97
2024-02-12T21:47:22.094Z,5.93
2024-02-12T21:49:48.732Z,5.90
2024-02-12T21:52:15.926Z,5.75
2024-02-12T21:54:42.724Z,5.76
2024-02-12T21:57:09.214Z,5.64
2024-02-12T21:59:35.821Z,5.62
2024-02-12T22:02:02.292Z,5.59
2024-02-12T22:04:28.716Z,5.62
2024-02-12T22:06:55.181Z,5.63
2024-02-12T22:09:21.974Z,5.58
2024-02-12T22:11:48.780Z,5.51
2024-02-12T22:14:17.924Z,5.47
2024-02-12T22:16:44.382Z,5.48
2024-02-12T22:19:10.926Z,5.39
2024-02-12T22:21:39.106Z,5.43
2024-02-12T22:24:05.978Z,5.47
2024-02-12T22:26:32.662Z,5.30
2024-02-12T22:28:59.612Z,5.36
2024-02-12T22:31:27.893Z,5.42
2024-02-12T22:33:54.846Z,5.45
2024-02-12T22:36:21.409Z,5.35
2024-02-12T22:38:48.640Z,5.34
2024-02-12T22:41:15.290Z,5.20
2024-02-12T22:43:41.804Z,5.16
2024-02-12T22:46:08.244Z,5.17
2024-02-12T22:48:34.866Z,5.22
2024-02-12T22:51:01.416Z,5.04
2024-02-12T22:53:27.880Z,5.17
2024-02-12T22:55:54.458Z,5.14
2024-02-12T22:58:20.929Z,5.06
2024-02-12T23:00:47.816Z,5.08
2024-02-12T23:03:15.178Z,5.06
2024-02-12T23:05:42.987Z,5.10
2024-02-12T23:08:09.720Z,5.04
2024-02-12T23:10:36.155Z,5.02
2024-02-12T23:13:02.649Z,5.03
2024-02-12T23:15:32.502Z,4.90
2024-02-12T23:18:00.888Z,4.91
2024-02-12T23:20:27.526Z,4.94
2024-02-12T23:22:54.037Z,4.95
2024-02-12T23:25:21.260Z,4.98
2024-02-12T23:27:47.709Z,4.89
2024-02-12T23:30:14.484Z,4.81
2024-02-12T23:32:42.443Z,4.74
2024-02-12T23:35:09.556Z,4.69
2024-02-12T23:37:38.690Z,4.63
2024-02-12T23:40:11.579Z,4.50
2024-02-12T23:42:41.878Z,4.43
2024-02-12T23:45:12.175Z,4.49
2024-02-12T23:47:39.212Z,4.42
2024-02-12T23:50:12.597Z,4.40
2024-02-12T23:52:40.382Z,4.36
2024-02-12T23:55:07.238Z,4.31
2024-02-12T23:57:34.727Z,4.34
